createdAt,value
2022-10-18T00:00:23.588Z,102631.50
2022-10-18T00:00:55.230Z,102623.19
2022-10-18T00:01:26.781Z,102627.97
2022-10-18T00:01:58.491Z,102627.97
2022-10-18T00:02:30.139Z,102628.75
2022-10-18T00:03:01.533Z,102636.53
2022-10-18T00:03:33.901Z,102629.91
2022-10-18T00:04:07.606Z,102629.03
2022-10-18T00:04:39.190Z,102621.25
2022-10-18T00:05:10.843Z,102627.88
2022-10-18T00:05:42.273Z,102633.00
2022-10-18T00:06:13.822Z,102629.47
2022-10-18T00:06:45.320Z,102621.69
2022-10-18T00:07:16.638Z,102626.38
2022-10-18T00:07:47.982Z,102622.84
2022-10-18T00:08:20.286Z,102627.16
2022-10-18T00:08:51.822Z,102624.78
2022-10-18T00:09:23.451Z,102620.09
2022-10-18T00:09:54.785Z,102627.97
2022-10-18T00:10:26.276Z,102622.03
2022-10-18T00:10:57.930Z,102622.84
2022-10-18T00:11:29.378Z,102616.91
2022-10-18T00:12:00.973Z,102633.44
2022-10-18T00:12:34.980Z,102628.31
2022-10-18T00:13:06.581Z,102618.50
2022-10-18T00:13:38.762Z,102625.56
2022-10-18T00:14:10.385Z,102626.38
2022-10-18T00:14:41.950Z,102619.22
2022-10-18T00:15:13.309Z,102629.13
2022-10-18T00:16:06.112Z,102624.44
2022-10-18T00:16:37.559Z,102625.22
2022-10-18T00:17:08.936Z,102622.03
2022-10-18T00:17:40.325Z,102625.94
2022-10-18T00:18:11.676Z,102625.94
2022-10-18T00:18:44.006Z,102625.56
2022-10-18T00:19:15.659Z,102624.09
2022-10-18T00:19:48.142Z,102624.09
2022-10-18T00:20:19.591Z,102624.44
2022-10-18T00:21:05.028Z,102624.09
2022-10-18T00:21:36.551Z,102616.22
2022-10-18T00:22:08.144Z,102620.91
2022-10-18T00:22:41.069Z,102620.53
2022-10-18T00:23:12.688Z,102618.50
2022-10-18T00:23:45.329Z,102616.22
2022-10-18T00:24:16.937Z,102618.50
2022-10-18T00:24:48.368Z,102616.56
2022-10-18T00:25:19.849Z,102620.91
2022-10-18T00:26:02.721Z,102618.94
2022-10-18T00:26:34.334Z,102630.34
2022-10-18T00:27:05.675Z,102622.13
2022-10-18T00:27:37.493Z,102628.06
2022-10-18T00:28:08.888Z,102624.88
2022-10-18T00:28:41.189Z,102625.22
2022-10-18T00:29:14.806Z,102631.16
2022-10-18T00:29:46.506Z,102630.00
2022-10-18T00:30:18.251Z,102628.75
2022-10-18T00:31:30.269Z,102635.09
2022-10-18T00:32:01.642Z,102635.91
2022-10-18T00:32:38.225Z,102634.34
2022-10-18T00:33:09.614Z,102628.06
2022-10-18T00:33:41.892Z,102632.75
2022-10-18T00:34:15.814Z,102622.50
2022-10-18T00:34:47.410Z,102627.16
2022-10-18T00:35:19.071Z,102624.88
2022-10-18T00:35:50.520Z,102623.72
2022-10-18T00:36:22.815Z,102624.88
2022-10-18T00:36:55.014Z,102630.34
2022-10-18T00:37:26.419Z,102620.09
2022-10-18T00:37:57.806Z,102620.44
2022-10-18T00:38:29.518Z,102620.44
2022-10-18T00:39:02.973Z,102627.97
2022-10-18T00:39:34.561Z,102633.44
2022-10-18T00:40:06.613Z,102630.63
2022-10-18T00:40:38.114Z,102622.41
2022-10-18T00:41:13.316Z,102627.16
2022-10-18T00:41:45.357Z,102638.13
2022-10-18T00:42:18.475Z,102632.66
2022-10-18T00:42:49.857Z,102628.31
2022-10-18T00:43:21.283Z,102631.06
2022-10-18T00:43:59.984Z,102631.16
2022-10-18T00:44:31.871Z,102639.03
2022-10-18T00:45:16.668Z,102640.97
2022-10-18T00:45:48.115Z,102634.59
2022-10-18T00:46:19.808Z,102629.47
2022-10-18T00:46:52.916Z,102632.22
2022-10-18T00:47:24.621Z,102629.13
2022-10-18T00:47:59.987Z,102634.59
2022-10-18T00:48:31.332Z,102634.59
2022-10-18T00:49:07.847Z,102623.19
2022-10-18T00:49:53.652Z,102631.06
2022-10-18T00:50:28.726Z,102631.06
2022-10-18T00:51:00.186Z,102639.28
2022-10-18T00:51:38.475Z,102637.25
2022-10-18T00:52:12.558Z,102632.22
2022-10-18T00:52:49.125Z,102635.28
2022-10-18T00:53:22.738Z,102632.09
2022-10-18T00:53:54.825Z,102629.72
2022-10-18T00:54:28.295Z,102639.97
2022-10-18T00:55:00.404Z,102636.44
2022-10-18T00:55:33.595Z,102639.97
2022-10-18T00:56:05.334Z,102622.66
2022-10-18T00:56:37.035Z,102631.22
2022-10-18T00:57:09.346Z,102632.81
2022-10-18T00:57:43.147Z,102636.69
2022-10-18T00:58:17.200Z,102633.59
2022-10-18T00:58:49.766Z,102639.09
2022-10-18T00:59:21.801Z,102637.94
2022-10-18T00:59:54.091Z,102630.78
2022-10-18T01:00:25.826Z,102634.31
2022-10-18T01:00:57.142Z,102639.88
2022-10-18T01:01:28.945Z,102634.75
2022-10-18T01:02:01.320Z,102632.00
2022-10-18T01:02:33.396Z,102640.31
2022-10-18T01:03:05.690Z,102635.66
2022-10-18T01:03:37.934Z,102641.13
2022-10-18T01:04:09.319Z,102645.00
2022-10-18T01:04:40.982Z,102637.16
2022-10-18T01:05:15.348Z,102646.97
2022-10-18T01:05:48.130Z,102647.41
2022-10-18T01:06:19.710Z,102642.28
2022-10-18T01:07:30.208Z,102640.69
2022-10-18T01:08:16.659Z,102642.28
2022-10-18T01:09:04.643Z,102645.81
2022-10-18T01:09:52.025Z,102645.81
2022-10-18T01:10:44.608Z,102645.81
2022-10-18T01:11:51.008Z,102646.16
2022-10-18T01:12:33.190Z,102647.31
2022-10-18T01:13:41.620Z,102652.00
2022-10-18T01:14:45.167Z,102647.66
2022-10-18T01:15:31.124Z,102646.06
2022-10-18T01:16:58.364Z,102646.06
2022-10-18T01:18:02.173Z,102651.88
2022-10-18T01:18:45.163Z,102649.50
2022-10-18T01:19:43.516Z,102647.56
2022-10-18T01:20:17.918Z,102650.28
2022-10-18T01:20:59.072Z,102644.41
2022-10-18T01:21:45.453Z,102649.50
2022-10-18T01:22:24.920Z,102647.94
2022-10-18T01:23:14.133Z,102639.72
2022-10-18T01:24:03.708Z,102645.19
2022-10-18T01:24:53.716Z,102648.28
2022-10-18T01:26:00.145Z,102643.59
2022-10-18T01:27:03.750Z,102647.50
2022-10-18T01:27:44.615Z,102650.22
2022-10-18T01:28:51.880Z,102654.13
2022-10-18T01:29:58.380Z,102651.28
2022-10-18T01:30:48.232Z,102658.69
2022-10-18T01:31:40.139Z,102666.91
2022-10-18T01:32:22.113Z,102662.56
2022-10-18T01:32:58.049Z,102664.53
2022-10-18T01:33:51.192Z,102662.56
2022-10-18T01:34:25.959Z,102666.47
2022-10-18T01:35:01.653Z,102668.06
2022-10-18T01:35:40.769Z,102669.19
2022-10-18T01:36:23.245Z,102662.13
2022-10-18T01:36:56.843Z,102665.66
2022-10-18T01:37:30.786Z,102659.75
2022-10-18T01:38:05.966Z,102668.41
2022-10-18T01:38:39.776Z,102669.19
2022-10-18T01:39:16.952Z,102669.19
2022-10-18T01:39:52.211Z,102658.59
2022-10-18T01:40:24.874Z,102659.75
2022-10-18T01:40:57.965Z,102660.19
2022-10-18T01:41:29.981Z,102667.59
2022-10-18T01:42:06.103Z,102664.88
2022-10-18T01:42:37.540Z,102670.34
2022-10-18T01:43:10.566Z,102653.78
2022-10-18T01:43:46.462Z,102664.88
2022-10-18T01:44:23.054Z,102663.59
2022-10-18T01:44:54.972Z,102662.47
2022-10-18T01:45:28.361Z,102656.53
2022-10-18T01:46:01.331Z,102663.72
2022-10-18T01:46:33.319Z,102667.59
2022-10-18T01:47:07.743Z,102666.00
2022-10-18T01:47:40.572Z,102662.47
2022-10-18T01:48:13.879Z,102661.19
2022-10-18T01:48:46.301Z,102661.34
2022-10-18T01:49:17.723Z,102660.84
2022-10-18T01:49:49.061Z,102666.34
2022-10-18T01:50:32.768Z,102667.97
2022-10-18T01:51:05.099Z,102666.34
2022-10-18T01:51:36.605Z,102664.06
2022-10-18T01:52:13.244Z,102667.97
2022-10-18T01:52:50.159Z,102666.81
2022-10-18T01:53:33.476Z,102662.13
2022-10-18T01:54:05.307Z,102666.81
2022-10-18T01:54:39.244Z,102653.47
2022-10-18T01:55:10.928Z,102660.53
2022-10-18T01:55:46.131Z,102654.72
2022-10-18T01:56:23.340Z,102657.44
2022-10-18T01:56:54.597Z,102654.72
2022-10-18T01:57:34.681Z,102659.38
2022-10-18T01:58:18.833Z,102659.38
2022-10-18T01:59:12.101Z,102659.38
2022-10-18T02:00:01.612Z,102654.25
2022-10-18T02:00:41.998Z,102654.25
2022-10-18T02:01:28.215Z,102657.78
2022-10-18T02:02:14.508Z,102654.25
2022-10-18T02:02:51.904Z,102658.94
2022-10-18T02:03:27.699Z,102655.72
2022-10-18T02:04:11.576Z,102652.19
2022-10-18T02:05:19.779Z,102650.25
2022-10-18T02:06:03.335Z,102652.19
2022-10-18T02:06:45.055Z,102647.84
2022-10-18T02:08:12.390Z,102651.38
2022-10-18T02:08:59.322Z,102655.28
2022-10-18T02:09:40.185Z,102652.88
2022-10-18T02:10:33.998Z,102655.63
2022-10-18T02:11:09.286Z,102657.56
2022-10-18T02:11:46.406Z,102656.75
2022-10-18T02:12:19.981Z,102667.72
2022-10-18T02:12:53.733Z,102662.25
2022-10-18T02:13:30.084Z,102658.75
2022-10-18T02:14:08.332Z,102652.88
2022-10-18T02:14:41.887Z,102653.59
2022-10-18T02:15:23.998Z,102658.28
2022-10-18T02:16:00.360Z,102661.03
2022-10-18T02:16:44.229Z,102661.47
2022-10-18T02:17:17.441Z,102659.88
2022-10-18T02:17:48.763Z,102657.16
2022-10-18T02:18:34.165Z,102666.16
2022-10-18T02:19:12.674Z,102659.88
2022-10-18T02:19:49.382Z,102659.09
2022-10-18T02:20:24.153Z,102658.28
2022-10-18T02:20:56.342Z,102659.09
2022-10-18T02:21:29.106Z,102656.69
2022-10-18T02:22:01.093Z,102667.31
2022-10-18T02:22:33.865Z,102658.97
2022-10-18T02:23:08.377Z,102651.91
2022-10-18T02:23:39.830Z,102649.53
2022-10-18T02:24:14.167Z,102664.47
2022-10-18T02:24:51.079Z,102668.69
2022-10-18T02:25:27.484Z,102657.72
2022-10-18T02:25:58.878Z,102661.63
2022-10-18T02:26:30.628Z,102659.69
2022-10-18T02:27:02.391Z,102658.09
2022-10-18T02:27:33.730Z,102662.06
2022-10-18T02:28:06.117Z,102656.13
2022-10-18T02:28:38.423Z,102662.41
2022-10-18T02:29:10.328Z,102657.63
2022-10-18T02:29:42.836Z,102657.28
2022-10-18T02:30:15.894Z,102661.06
2022-10-18T02:31:11.320Z,102661.97
2022-10-18T02:31:49.423Z,102664.25
2022-10-18T02:32:44.643Z,102663.44
2022-10-18T02:33:32.166Z,102665.06
2022-10-18T02:34:16.878Z,102659.47
2022-10-18T02:34:58.501Z,102662.22
2022-10-18T02:35:35.790Z,102662.22
2022-10-18T02:36:15.167Z,102657.06
2022-10-18T02:36:51.931Z,102658.66
2022-10-18T02:37:59.033Z,102656.66
2022-10-18T02:38:32.169Z,102662.56
2022-10-18T02:39:09.767Z,102658.59
2022-10-18T02:39:46.936Z,102660.88
2022-10-18T02:40:18.911Z,102657.78
2022-10-18T02:40:50.595Z,102652.31
2022-10-18T02:41:27.297Z,102657.00
2022-10-18T02:41:59.887Z,102652.31
2022-10-18T02:42:47.726Z,102661.69
2022-10-18T02:43:19.079Z,102659.75
2022-10-18T02:43:50.530Z,102656.56
2022-10-18T02:44:22.074Z,102659.28
2022-10-18T02:44:53.480Z,102662.38
2022-10-18T02:45:26.362Z,102658.84
2022-10-18T02:45:57.780Z,102656.91
2022-10-18T02:46:29.165Z,102659.63
2022-10-18T02:47:01.191Z,102654.50
2022-10-18T02:47:32.891Z,102654.41
2022-10-18T02:48:04.639Z,102648.91
2022-10-18T02:48:36.169Z,102656.78
2022-10-18T02:49:07.715Z,102663.06
2022-10-18T02:49:39.114Z,102648.13
2022-10-18T02:50:10.898Z,102659.53
2022-10-18T02:50:42.228Z,102659.53
2022-10-18T02:51:13.794Z,102654.75
2022-10-18T02:51:45.122Z,102663.75
2022-10-18T02:52:16.513Z,102655.88
2022-10-18T02:52:48.121Z,102660.22
2022-10-18T02:53:19.686Z,102664.56
2022-10-18T02:53:51.271Z,102661.00
2022-10-18T02:54:23.372Z,102656.22
2022-10-18T02:54:55.295Z,102663.31
2022-10-18T02:55:26.643Z,102662.16
2022-10-18T02:55:58.014Z,102661.25
2022-10-18T02:56:29.582Z,102662.06
2022-10-18T02:57:00.924Z,102666.84
2022-10-18T02:57:32.867Z,102669.91
2022-10-18T02:58:04.599Z,102660.09
2022-10-18T02:58:36.009Z,102662.84
2022-10-18T02:59:08.124Z,102669.13
2022-10-18T02:59:39.670Z,102654.53
2022-10-18T03:00:11.636Z,102662.84
2022-10-18T03:00:42.931Z,102658.50
2022-10-18T03:01:14.362Z,102658.06
2022-10-18T03:01:46.056Z,102658.50
2022-10-18T03:02:17.609Z,102654.19
2022-10-18T03:02:49.320Z,102657.72
2022-10-18T03:03:20.857Z,102653.38
2022-10-18T03:03:52.372Z,102660.81
2022-10-18T03:04:23.701Z,102651.78
2022-10-18T03:04:55.085Z,102643.84
2022-10-18T03:05:26.413Z,102648.19
2022-10-18T03:05:57.835Z,102644.66
2022-10-18T03:06:29.371Z,102646.13
2022-10-18T03:07:00.704Z,102643.41
2022-10-18T03:07:32.385Z,102640.66
2022-10-18T03:08:04.481Z,102643.75
2022-10-18T03:08:36.471Z,102652.41
2022-10-18T03:09:07.986Z,102648.88
2022-10-18T03:09:39.581Z,102644.53
2022-10-18T03:10:10.918Z,102655.47
2022-10-18T03:10:46.823Z,102651.59
2022-10-18T03:11:18.189Z,102652.75
2022-10-18T03:11:49.474Z,102646.47
2022-10-18T03:12:20.996Z,102648.41
2022-10-18T03:12:52.521Z,102654.22
2022-10-18T03:13:23.865Z,102652.28
2022-10-18T03:13:55.401Z,102659.25
2022-10-18T03:14:26.973Z,102652.97
2022-10-18T03:14:58.658Z,102652.63
2022-10-18T03:15:29.987Z,102656.88
2022-10-18T03:16:01.767Z,102660.84
2022-10-18T03:16:34.153Z,102658.00
2022-10-18T03:17:05.485Z,102661.66
2022-10-18T03:17:36.831Z,102660.84
2022-10-18T03:18:08.371Z,102650.59
2022-10-18T03:18:39.735Z,102652.97
2022-10-18T03:19:11.149Z,102650.59
2022-10-18T03:19:42.593Z,102663.25
2022-10-18T03:20:14.263Z,102658.56
2022-10-18T03:20:45.640Z,102657.78
2022-10-18T03:21:17.174Z,102651.84
2022-10-18T03:21:48.826Z,102660.84
2022-10-18T03:22:20.246Z,102661.19
2022-10-18T03:22:51.599Z,102659.25
2022-10-18T03:23:23.183Z,102657.66
2022-10-18T03:23:54.562Z,102656.88
2022-10-18T03:24:26.102Z,102658.81
2022-10-18T03:24:57.435Z,102656.75
2022-10-18T03:25:29.066Z,102657.19
2022-10-18T03:26:00.643Z,102659.94
2022-10-18T03:26:32.170Z,102658.34
2022-10-18T03:27:03.725Z,102664.97
2022-10-18T03:27:35.200Z,102652.41
2022-10-18T03:28:06.844Z,102666.91
2022-10-18T03:28:38.437Z,102663.75
2022-10-18T03:29:10.609Z,102660.53
2022-10-18T03:29:41.961Z,102660.63
2022-10-18T03:30:13.669Z,102668.84
2022-10-18T03:30:45.261Z,102652.34
2022-10-18T03:31:16.991Z,102657.47
2022-10-18T03:31:48.485Z,102662.94
2022-10-18T03:32:19.815Z,102666.91
2022-10-18T03:32:51.394Z,102664.53
2022-10-18T03:33:22.735Z,102672.75
2022-10-18T03:33:54.092Z,102666.03
2022-10-18T03:34:25.635Z,102662.81
2022-10-18T03:34:57.145Z,102670.00
2022-10-18T03:35:28.503Z,102658.16
2022-10-18T03:35:59.890Z,102661.69
2022-10-18T03:36:31.298Z,102664.09
2022-10-18T03:37:04.793Z,102662.03
2022-10-18T03:37:37.232Z,102659.75
2022-10-18T03:38:08.911Z,102666.03
2022-10-18T03:38:40.259Z,102664.09
2022-10-18T03:39:12.679Z,102665.22
2022-10-18T03:39:43.982Z,102662.81
2022-10-18T03:40:15.411Z,102667.50
2022-10-18T03:40:46.755Z,102654.84
2022-10-18T03:41:18.336Z,102656.78
2022-10-18T03:41:49.735Z,102662.59
2022-10-18T03:42:21.288Z,102659.06
2022-10-18T03:42:52.804Z,102660.66
2022-10-18T03:43:24.380Z,102660.66
2022-10-18T03:43:55.709Z,102665.78
2022-10-18T03:44:27.224Z,102670.47
2022-10-18T03:44:58.568Z,102661.47
2022-10-18T03:45:31.416Z,102663.75
2022-10-18T03:46:03.688Z,102663.41
2022-10-18T03:46:35.251Z,102656.69
2022-10-18T03:47:06.757Z,102666.47
2022-10-18T03:47:38.178Z,102658.97
2022-10-18T03:48:09.508Z,102660.22
2022-10-18T03:48:41.191Z,102653.03
2022-10-18T03:49:12.657Z,102654.97
2022-10-18T03:49:44.070Z,102659.75
2022-10-18T03:50:15.694Z,102660.91
2022-10-18T03:50:47.213Z,102661.69
2022-10-18T03:51:18.749Z,102661.69
2022-10-18T03:51:50.272Z,102663.63
2022-10-18T03:52:21.825Z,102660.81
2022-10-18T03:52:54.440Z,102664.69
2022-10-18T03:53:25.905Z,102659.91
2022-10-18T03:53:57.326Z,102670.50
2022-10-18T03:54:28.874Z,102666.84
2022-10-18T03:55:00.196Z,102670.50
2022-10-18T03:55:31.735Z,102668.44
2022-10-18T03:56:03.495Z,102660.25
2022-10-18T03:56:34.849Z,102666.06
2022-10-18T03:57:06.378Z,102662.53
2022-10-18T03:57:37.698Z,102665.25
2022-10-18T03:58:09.254Z,102675.06
2022-10-18T03:58:40.613Z,102673.91
2022-10-18T03:59:12.126Z,102662.53
2022-10-18T03:59:43.466Z,102665.25
2022-10-18T04:00:15.128Z,102668.78
2022-10-18T04:00:52.666Z,102666.75
2022-10-18T04:01:24.283Z,102666.41
2022-10-18T04:01:55.691Z,102660.47
2022-10-18T04:02:27.606Z,102670.63
2022-10-18T04:02:59.131Z,102663.19
2022-10-18T04:03:30.466Z,102666.63
2022-10-18T04:04:01.926Z,102653.97
2022-10-18T04:04:33.344Z,102657.88
2022-10-18T04:05:05.315Z,102660.25
2022-10-18T04:05:36.907Z,102664.13
2022-10-18T04:06:10.078Z,102656.28
2022-10-18T04:06:41.723Z,102656.69
2022-10-18T04:07:13.267Z,102654.69
2022-10-18T04:07:44.712Z,102662.53
2022-10-18T04:08:16.929Z,102655.47
2022-10-18T04:08:48.283Z,102659.34
2022-10-18T04:09:19.652Z,102660.50
2022-10-18T04:09:50.974Z,102660.50
2022-10-18T04:10:23.010Z,102662.78
2022-10-18T04:10:54.577Z,102661.50
2022-10-18T04:11:25.951Z,102667.09
2022-10-18T04:11:57.345Z,102665.38
2022-10-18T04:12:28.927Z,102661.06
2022-10-18T04:13:00.583Z,102668.56
2022-10-18T04:13:32.113Z,102660.25
2022-10-18T04:14:03.661Z,102663.09
2022-10-18T04:14:35.469Z,102656.84
2022-10-18T04:15:07.713Z,102657.97
2022-10-18T04:15:39.291Z,102651.59
2022-10-18T04:16:10.621Z,102665.03
2022-10-18T04:16:42.090Z,102662.19
2022-10-18T04:17:13.404Z,102652.84
2022-10-18T04:17:44.955Z,102659.91
2022-10-18T04:18:21.498Z,102659.34
2022-10-18T04:18:53.122Z,102666.41
2022-10-18T04:19:24.557Z,102664.47
2022-10-18T04:19:55.878Z,102665.94
2022-10-18T04:20:28.119Z,102674.59
2022-10-18T04:20:59.527Z,102665.59
2022-10-18T04:21:30.862Z,102669.47
2022-10-18T04:22:02.198Z,102674.84
2022-10-18T04:22:33.745Z,102662.22
2022-10-18T04:23:05.094Z,102668.94
2022-10-18T04:23:38.751Z,102666.06
2022-10-18T04:24:10.393Z,102673.13
2022-10-18T04:24:41.736Z,102665.16
2022-10-18T04:25:13.102Z,102667.88
2022-10-18T04:26:28.791Z,102666.97
2022-10-18T04:35:01.444Z,102654.63
2022-10-18T05:01:47.671Z,102666.63
2022-10-18T05:58:37.668Z,102700.44
2022-10-18T06:05:30.882Z,102715.66
2022-10-18T06:13:10.971Z,102731.13
2022-10-18T06:18:15.898Z,102750.69
2022-10-18T06:35:04.841Z,102756.16
2022-10-18T06:35:36.227Z,102757.75
2022-10-18T06:36:11.494Z,102759.69
2022-10-18T06:36:53.808Z,102758.09
2022-10-18T06:37:30.593Z,102759.31
2022-10-18T06:38:02.151Z,102757.75
2022-10-18T06:38:33.690Z,102763.66
2022-10-18T06:39:05.073Z,102755.03
2022-10-18T06:39:36.465Z,102761.63
2022-10-18T06:40:08.500Z,102766.84
2022-10-18T06:40:39.869Z,102770.25
2022-10-18T06:41:11.289Z,102767.06
2022-10-18T06:41:42.845Z,102765.94
2022-10-18T06:42:14.806Z,102774.25
2022-10-18T06:42:59.934Z,102776.16
2022-10-18T06:43:32.144Z,102776.16
2022-10-18T06:44:13.256Z,102771.03
2022-10-18T06:44:44.669Z,102780.16
2022-10-18T06:45:18.140Z,102780.50
2022-10-18T06:45:50.264Z,102791.41
2022-10-18T06:46:21.645Z,102781.28
2022-10-18T06:46:53.470Z,102776.16
2022-10-18T06:47:24.865Z,102776.16
2022-10-18T06:47:58.641Z,102784.16
2022-10-18T06:48:31.282Z,102776.63
2022-10-18T06:49:02.660Z,102775.50
2022-10-18T06:49:34.082Z,102776.63
2022-10-18T06:50:05.790Z,102784.63
2022-10-18T06:50:37.395Z,102787.38
2022-10-18T06:51:09.820Z,102784.16
2022-10-18T06:51:42.832Z,102781.78
2022-10-18T06:52:17.235Z,102782.25
2022-10-18T06:52:51.228Z,102786.72
2022-10-18T06:53:26.714Z,102783.97
2022-10-18T06:54:13.330Z,102788.31
2022-10-18T06:54:49.110Z,102787.03
2022-10-18T06:55:20.609Z,102794.56
2022-10-18T06:55:52.383Z,102791.03
2022-10-18T06:56:23.733Z,102794.91
2022-10-18T06:56:58.113Z,102799.69
2022-10-18T06:57:34.405Z,102806.75
2022-10-18T06:58:08.855Z,102787.84
2022-10-18T06:58:40.797Z,102800.16
2022-10-18T06:59:12.343Z,102796.63
2022-10-18T06:59:43.697Z,102797.44
2022-10-18T07:00:15.590Z,102789.91
2022-10-18T07:00:47.708Z,102796.63
2022-10-18T07:01:19.868Z,102802.91
2022-10-18T07:01:51.559Z,102795.94
2022-10-18T07:02:23.143Z,102799.03
2022-10-18T07:02:54.520Z,102792.78
2022-10-18T07:03:27.231Z,102801.78
2022-10-18T07:03:58.766Z,102806.22
2022-10-18T07:04:32.944Z,102797.56
2022-10-18T07:05:04.697Z,102806.22
2022-10-18T07:05:36.086Z,102803.16
2022-10-18T07:06:10.048Z,102805.88
2022-10-18T07:06:41.446Z,102806.22
2022-10-18T07:07:12.948Z,102810.22
2022-10-18T07:07:44.351Z,102808.94
2022-10-18T07:08:16.174Z,102812.94
2022-10-18T07:08:49.590Z,102806.22
2022-10-18T07:09:20.927Z,102808.75
2022-10-18T07:09:52.347Z,102810.22
2022-10-18T07:10:25.826Z,102804.75
2022-10-18T07:10:57.297Z,102806.69
2022-10-18T07:11:33.989Z,102806.69
2022-10-18T07:12:05.709Z,102807.16
2022-10-18T07:12:37.119Z,102809.56
2022-10-18T07:13:31.034Z,102807.28
2022-10-18T07:14:03.281Z,102811.63
2022-10-18T07:14:34.681Z,102812.88
2022-10-18T07:15:09.325Z,102808.09
2022-10-18T07:15:41.171Z,102805.03
2022-10-18T07:16:18.159Z,102808.22
2022-10-18T07:16:50.296Z,102813.69
2022-10-18T07:17:21.678Z,102812.56
2022-10-18T07:17:53.056Z,102814.81
2022-10-18T07:18:24.476Z,102814.81
2022-10-18T07:18:55.841Z,102815.94
2022-10-18T07:19:27.680Z,102814.81
2022-10-18T07:19:59.053Z,102814.50
2022-10-18T07:20:30.411Z,102814.97
2022-10-18T07:21:16.477Z,102811.53
2022-10-18T07:21:48.071Z,102811.44
2022-10-18T07:22:19.402Z,102811.06
2022-10-18T07:22:50.949Z,102805.97
2022-10-18T07:23:23.801Z,102821.81
2022-10-18T07:23:56.356Z,102819.06
2022-10-18T07:24:27.758Z,102806.88
2022-10-18T07:24:59.087Z,102810.56
2022-10-18T07:25:31.210Z,102808.94
2022-10-18T07:26:05.277Z,102811.34
2022-10-18T07:26:36.821Z,102812.94
2022-10-18T07:27:08.352Z,102812.63
2022-10-18T07:27:42.388Z,102813.41
2022-10-18T07:28:13.894Z,102811.81
2022-10-18T07:28:47.438Z,102815.00
2022-10-18T07:29:18.800Z,102813.41
2022-10-18T07:29:50.158Z,102817.41
2022-10-18T07:30:21.494Z,102820.94
2022-10-18T07:30:52.870Z,102823.69
2022-10-18T07:31:25.109Z,102829.94
2022-10-18T07:31:56.714Z,102824.81
2022-10-18T07:32:28.135Z,102842.47
2022-10-18T07:32:59.486Z,102825.94
2022-10-18T07:33:30.891Z,102837.47
2022-10-18T07:34:04.901Z,102837.81
2022-10-18T07:34:36.243Z,102839.06
2022-10-18T07:35:08.091Z,102829.94
2022-10-18T07:35:39.418Z,102839.06
2022-10-18T07:36:12.496Z,102839.41
2022-10-18T07:36:43.890Z,102842.25
2022-10-18T07:37:15.254Z,102838.38
2022-10-18T07:37:46.637Z,102838.28
2022-10-18T07:38:18.193Z,102832.13
2022-10-18T07:38:50.063Z,102834.84
2022-10-18T07:39:21.504Z,102836.44
2022-10-18T07:40:13.069Z,102839.31
2022-10-18T07:41:09.166Z,102840.91
2022-10-18T07:41:40.828Z,102829.53
2022-10-18T07:42:12.145Z,102835.13
2022-10-18T07:42:43.472Z,102836.25
2022-10-18T07:43:14.885Z,102834.47
2022-10-18T07:43:49.186Z,102833.66
2022-10-18T07:44:20.739Z,102824.19
2022-10-18T07:44:52.344Z,102839.91
2022-10-18T07:45:23.750Z,102833.00
2022-10-18T07:45:57.888Z,102840.06
2022-10-18T07:46:29.408Z,102829.00
2022-10-18T07:47:00.817Z,102832.19
2022-10-18T07:47:35.099Z,102840.84
2022-10-18T07:48:06.790Z,102833.94
2022-10-18T07:48:38.154Z,102834.38
2022-10-18T07:49:09.517Z,102835.53
2022-10-18T07:49:41.181Z,102830.84
2022-10-18T07:50:12.745Z,102841.09
2022-10-18T07:50:44.124Z,102837.22
2022-10-18T07:51:15.653Z,102836.09
2022-10-18T07:51:46.972Z,102843.63
2022-10-18T07:52:18.337Z,102838.16
2022-10-18T07:52:49.677Z,102844.44
2022-10-18T07:53:21.061Z,102850.38
2022-10-18T07:53:52.422Z,102839.75
2022-10-18T07:54:23.751Z,102849.22
2022-10-18T07:54:55.280Z,102856.75
2022-10-18T07:55:26.694Z,102853.22
2022-10-18T07:55:59.293Z,102856.75
2022-10-18T07:56:30.662Z,102851.31
2022-10-18T07:57:04.235Z,102852.09
2022-10-18T07:57:35.788Z,102852.09
2022-10-18T07:58:07.315Z,102849.03
2022-10-18T07:58:38.879Z,102851.75
2022-10-18T07:59:11.186Z,102853.81
2022-10-18T07:59:46.203Z,102860.88
2022-10-18T08:00:17.579Z,102852.91
2022-10-18T08:00:49.160Z,102847.09
2022-10-18T08:01:22.439Z,102857.03
2022-10-18T08:01:53.928Z,102859.75
2022-10-18T08:02:25.432Z,102858.63
2022-10-18T08:02:58.741Z,102856.38
2022-10-18T08:03:30.116Z,102860.22
2022-10-18T08:04:07.038Z,102863.91
2022-10-18T08:04:39.418Z,102860.03
2022-10-18T08:05:10.782Z,102858.56
2022-10-18T08:05:42.139Z,102854.56
2022-10-18T08:06:16.326Z,102857.91
2022-10-18T08:06:48.017Z,102864.50
2022-10-18T08:07:19.466Z,102872.03
2022-10-18T08:07:50.808Z,102858.22
2022-10-18T08:08:23.334Z,102863.50
2022-10-18T08:08:54.756Z,102869.41
2022-10-18T08:09:26.338Z,102863.50
2022-10-18T08:09:57.886Z,102861.19
2022-10-18T08:10:29.440Z,102869.19
2022-10-18T08:11:06.836Z,102872.38
2022-10-18T08:11:38.621Z,102874.78
2022-10-18T08:12:09.960Z,102874.44
2022-10-18T08:12:41.733Z,102872.53
2022-10-18T08:13:13.351Z,102872.66
2022-10-18T08:13:44.737Z,102871.97
2022-10-18T08:14:16.084Z,102871.97
2022-10-18T08:14:47.471Z,102875.16
2022-10-18T08:15:18.862Z,102871.28
2022-10-18T08:15:50.249Z,102871.75
2022-10-18T08:16:24.921Z,102871.41
2022-10-18T08:16:56.571Z,102877.34
2022-10-18T08:17:27.885Z,102877.00
2022-10-18T08:17:59.413Z,102877.81
2022-10-18T08:18:31.530Z,102882.13
2022-10-18T08:19:03.087Z,102873.47
2022-10-18T08:19:34.653Z,102877.47
2022-10-18T08:20:12.110Z,102872.59
2022-10-18T08:20:45.364Z,102875.31
2022-10-18T08:21:18.534Z,102873.47
2022-10-18T08:21:49.865Z,102875.53
2022-10-18T08:22:22.816Z,102873.59
2022-10-18T08:22:59.070Z,102871.78
2022-10-18T08:23:31.400Z,102871.56
2022-10-18T08:24:02.826Z,102868.03
2022-10-18T08:24:34.346Z,102873.97
2022-10-18T08:25:06.365Z,102872.50
2022-10-18T08:25:46.402Z,102871.78
2022-10-18T08:26:20.837Z,102882.41
2022-10-18T08:26:52.286Z,102870.19
2022-10-18T08:27:26.415Z,102875.00
2022-10-18T08:27:58.082Z,102881.03
2022-10-18T08:28:29.590Z,102876.72
2022-10-18T08:29:21.051Z,102885.50
2022-10-18T08:29:52.813Z,102890.31
2022-10-18T08:30:24.602Z,102882.53
2022-10-18T08:30:56.202Z,102876.63
2022-10-18T08:31:27.590Z,102881.84
2022-10-18T08:31:59.029Z,102878.63
2022-10-18T08:32:30.672Z,102876.69
2022-10-18T08:33:03.421Z,102875.22
2022-10-18T08:33:36.089Z,102876.81
2022-10-18T08:34:07.544Z,102866.22
2022-10-18T08:35:15.564Z,102867.59
2022-10-18T08:35:57.749Z,102883.13
2022-10-18T08:36:29.121Z,102879.91
2022-10-18T08:37:00.628Z,102881.59
2022-10-18T08:37:32.792Z,102878.06
2022-10-18T08:38:04.391Z,102877.72